Time;durP1;ratioP1;P1;durP2;ratioP2;P2;SDS_P1;SDS_P2;PMS_P1;PMS_P2;Temp;Humidity;BMP_temperature;BMP_pressure;BME280_temperature;BME280_humidity;BME280_pressure;Samples;Min_cycle;Max_cycle;Signal;HPM_P1;HPM_P2
2023/03/10 00:00:29;;;;;;;69.35;36.60;;;;;;;3.88;100.00;98624.56;5055071;28;20025;-60
2023/03/10 00:02:55;;;;;;;60.42;35.05;;;;;;;3.88;100.00;98633.91;5055811;28;20025;-60
2023/03/10 00:05:20;;;;;;;69.15;37.90;;;;;;;3.87;100.00;98633.00;5055868;28;20053;-60
2023/03/10 00:07:46;;;;;;;70.07;37.75;;;;;;;3.87;100.00;98638.13;5055101;28;20024;-60
2023/03/10 00:10:14;;;;;;;71.40;37.80;;;;;;;3.89;100.00;98641.56;5055496;28;20132;-60
2023/03/10 00:12:39;;;;;;;72.78;38.47;;;;;;;3.90;100.00;98635.66;5055557;28;20488;-60
2023/03/10 00:15:07;;;;;;;73.10;38.08;;;;;;;3.89;100.00;98638.16;5054518;28;20025;-60
2023/03/10 00:17:33;;;;;;;68.45;37.80;;;;;;;3.89;100.00;98638.16;5055436;28;20119;-60
2023/03/10 00:19:58;;;;;;;67.20;37.70;;;;;;;3.87;100.00;98643.22;5055003;28;20116;-60
2023/03/10 00:22:23;;;;;;;72.90;37.92;;;;;;;3.86;100.00;98641.50;5055142;28;20453;-60
2023/03/10 00:24:49;;;;;;;69.43;37.17;;;;;;;3.85;100.00;98639.78;5055539;28;20064;-60
2023/03/10 00:27:14;;;;;;;62.20;35.83;;;;;;;3.88;100.00;98641.53;5054905;28;20083;-60
2023/03/10 00:29:39;;;;;;;69.80;37.35;;;;;;;3.89;100.00;98633.06;5054746;28;20069;-60
2023/03/10 00:32:05;;;;;;;63.50;36.92;;;;;;;3.90;100.00;98630.56;5055121;28;20021;-60
2023/03/10 00:34:30;;;;;;;67.78;37.75;;;;;;;3.91;100.00;98623.75;5055204;28;20035;-60
2023/03/10 00:36:55;;;;;;;58.20;36.70;;;;;;;3.93;100.00;98624.66;5054161;28;20484;-60
2023/03/10 00:39:21;;;;;;;64.35;36.58;;;;;;;3.93;100.00;98625.50;5055267;28;20465;-60
2023/03/10 00:41:47;;;;;;;58.67;36.33;;;;;;;3.93;100.00;98627.22;5054208;28;20025;-60
2023/03/10 00:44:13;;;;;;;65.20;37.70;;;;;;;3.93;100.00;98633.16;5054288;28;20021;-60
2023/03/10 00:46:38;;;;;;;69.90;38.03;;;;;;;3.94;100.00;98634.88;5055228;28;20391;-60
2023/03/10 00:49:06;;;;;;;67.43;36.90;;;;;;;3.95;100.00;98644.25;5054213;28;20415;-60
2023/03/10 00:51:31;;;;;;;58.70;36.67;;;;;;;3.99;100.00;98631.56;5054951;28;20431;-60
2023/03/10 00:53:59;;;;;;;63.22;37.10;;;;;;;4.00;100.00;98639.22;5054570;28;20021;-60
2023/03/10 00:56:25;;;;;;;70.78;37.55;;;;;;;4.00;100.00;98639.22;5054087;28;20036;-60
2023/03/10 00:58:52;;;;;;;75.32;39.83;;;;;;;4.01;100.00;98635.84;5054773;28;20025;-60
2023/03/10 01:01:23;;;;;;;69.72;39.80;;;;;;;4.05;100.00;98641.88;5054657;28;20025;-60
2023/03/10 01:03:54;;;;;;;62.53;37.83;;;;;;;4.09;100.00;98642.00;5053890;28;20025;-60
2023/03/10 01:06:21;;;;;;;64.97;37.90;;;;;;;4.10;100.00;98645.38;5054568;28;20144;-60
2023/03/10 01:08:46;;;;;;;70.50;39.15;;;;;;;4.11;100.00;98644.56;5054744;28;20491;-60
2023/03/10 01:11:17;;;;;;;67.90;39.65;;;;;;;4.14;100.00;98636.97;5053532;28;20033;-60
2023/03/10 01:13:43;;;;;;;69.97;39.70;;;;;;;4.17;100.00;98639.59;5054508;28;20369;-60
2023/03/10 01:16:08;;;;;;;76.93;40.50;;;;;;;4.16;100.00;98634.44;5054076;28;20025;-60
2023/03/10 01:18:34;;;;;;;71.07;39.28;;;;;;;4.16;100.00;98629.34;5053889;28;20040;-60
2023/03/10 01:20:59;;;;;;;79.95;40.88;;;;;;;4.15;100.00;98622.53;5054225;28;20032;-60
2023/03/10 01:23:26;;;;;;;71.57;38.80;;;;;;;4.15;100.00;98617.44;5054098;28;20438;-60
2023/03/10 01:25:51;;;;;;;65.57;38.45;;;;;;;4.16;100.00;98620.00;5053751;28;20040;-60
2023/03/10 01:28:17;;;;;;;79.82;40.35;;;;;;;4.20;100.00;98619.25;5053946;28;20131;-60
2023/03/10 01:30:43;;;;;;;62.08;37.63;;;;;;;4.24;100.00;98613.38;5054121;28;20119;-60
2023/03/10 01:33:09;;;;;;;72.47;38.30;;;;;;;4.25;100.00;98614.25;5053423;28;20031;-60
2023/03/10 01:35:36;;;;;;;77.13;40.55;;;;;;;4.40;100.00;98609.44;5054031;28;20468;-60
2023/03/10 01:38:02;;;;;;;69.97;39.72;;;;;;;4.36;100.00;98612.72;5053622;28;20025;-60
2023/03/10 01:40:28;;;;;;;71.55;40.00;;;;;;;4.54;100.00;98602.00;5053745;28;20049;-60
2023/03/10 01:43:19;;;;;;;81.50;40.92;;;;;;;4.60;100.00;98601.25;5054028;28;20110;-60
2023/03/10 01:45:44;;;;;;;79.40;40.47;;;;;;;4.87;100.00;98605.97;5053263;28;20047;-60
2023/03/10 01:48:10;;;;;;;84.45;40.83;;;;;;;5.17;100.00;98602.16;5053617;28;20393;-59
2023/03/10 01:50:36;;;;;;;91.40;42.70;;;;;;;5.39;100.00;98605.03;5053750;28;20075;-60
2023/03/10 01:53:02;;;;;;;96.50;42.38;;;;;;;5.64;100.00;98596.00;5052125;28;20032;-60
2023/03/10 01:55:34;;;;;;;89.80;44.17;;;;;;;5.85;100.00;98592.00;5053090;28;20021;-60
2023/03/10 01:58:00;;;;;;;87.68;43.28;;;;;;;5.96;100.00;98574.25;5052927;28;20476;-60
2023/03/10 02:00:28;;;;;;;88.47;43.25;;;;;;;6.00;100.00;98573.47;5053134;28;20033;-60
2023/03/10 02:03:18;;;;;;;84.45;40.50;;;;;;;6.17;100.00;98578.75;5053252;28;20028;-60
2023/03/10 02:05:54;;;;;;;80.82;39.95;;;;;;;6.34;100.00;98576.38;5053310;28;20094;-60
2023/03/10 02:08:21;;;;;;;78.18;39.13;;;;;;;6.49;100.00;98579.06;5052812;28;20117;-59
2023/03/10 02:10:47;;;;;;;83.90;39.63;;;;;;;6.56;100.00;98585.97;5053243;28;20475;-60
2023/03/10 02:13:12;;;;;;;79.13;38.47;;;;;;;6.65;100.00;98590.34;5052812;28;20777;-60
2023/03/10 02:15:38;;;;;;;88.30;40.85;;;;;;;6.65;100.00;98587.78;5052589;28;20082;-59
2023/03/10 02:18:07;;;;;;;81.30;37.72;;;;;;;6.70;100.00;98578.44;5052873;28;20044;-59
2023/03/10 02:20:40;;;;;;;80.10;37.47;;;;;;;6.73;100.00;98580.16;5052338;28;20361;-60
2023/03/10 02:23:06;;;;;;;80.28;36.33;;;;;;;6.86;100.00;98579.41;5052914;28;20120;-59
2023/03/10 02:25:38;;;;;;;75.18;36.38;;;;;;;6.97;100.00;98573.50;5053268;28;20025;-59
2023/03/10 02:28:04;;;;;;;73.55;35.08;;;;;;;6.99;100.00;98564.16;5052063;28;20381;-60
2023/03/10 02:30:36;;;;;;;72.88;33.80;;;;;;;7.06;100.00;98560.75;5052957;28;20468;-59
2023/03/10 02:33:06;;;;;;;67.20;32.78;;;;;;;7.11;100.00;98553.97;5053045;28;20048;-60
2023/03/10 02:35:31;;;;;;;67.53;32.17;;;;;;;7.15;100.00;98552.28;5052505;28;20069;-60
2023/03/10 02:37:58;;;;;;;65.80;32.75;;;;;;;7.19;100.00;98548.91;5052828;28;20487;-59
2023/03/10 02:40:49;;;;;;;63.88;30.60;;;;;;;7.24;100.00;98542.09;5052645;28;20024;-60
2023/03/10 02:43:30;;;;;;;59.40;29.15;;;;;;;7.14;100.00;98542.88;5052102;28;20142;-60
2023/03/10 02:46:00;;;;;;;61.13;30.17;;;;;;;7.21;100.00;98539.53;5052602;28;20066;-60
2023/03/10 02:48:29;;;;;;;54.75;28.88;;;;;;;7.24;100.00;98529.28;5052884;28;20118;-59
2023/03/10 02:50:57;;;;;;;58.30;28.77;;;;;;;7.15;100.00;98530.06;5052473;28;20020;-60
2023/03/10 02:53:25;;;;;;;53.25;27.83;;;;;;;7.25;100.00;98529.28;5052675;28;20166;-59
2023/03/10 02:55:52;;;;;;;56.25;27.00;;;;;;;7.20;100.00;98530.97;5051978;28;20087;-59
2023/03/10 02:58:18;;;;;;;49.45;25.90;;;;;;;7.16;100.00;98528.41;5052445;28;20021;-60
2023/03/10 03:00:46;;;;;;;44.85;24.42;;;;;;;7.14;100.00;98523.28;5052640;28;20047;-60
2023/03/10 03:03:13;;;;;;;46.45;23.98;;;;;;;7.17;100.00;98525.84;5051456;28;20349;-60
2023/03/10 03:05:39;;;;;;;46.92;22.30;;;;;;;7.18;100.00;98519.88;5052093;28;20049;-60
2023/03/10 03:08:05;;;;;;;46.47;22.92;;;;;;;7.18;100.00;98514.75;5052176;28;20039;-59
2023/03/10 03:10:32;;;;;;;48.55;23.52;;;;;;;7.20;100.00;98518.16;5051865;28;20021;-60
2023/03/10 03:12:57;;;;;;;42.75;23.52;;;;;;;7.13;100.00;98515.53;5052295;28;20043;-60
2023/03/10 03:15:23;;;;;;;45.10;23.20;;;;;;;7.11;100.00;98507.84;5052234;28;20033;-61
2023/03/10 03:17:48;;;;;;;47.15;22.38;;;;;;;7.05;100.00;98506.13;5052026;28;20025;-60
2023/03/10 03:20:15;;;;;;;45.90;23.35;;;;;;;7.05;100.00;98507.81;5052082;28;20542;-59
2023/03/10 03:22:41;;;;;;;50.90;22.45;;;;;;;6.86;100.00;98510.28;5052397;28;20032;-60
2023/03/10 03:25:09;;;;;;;45.83;21.38;;;;;;;6.92;100.00;98507.75;5051638;28;20495;-60
2023/03/10 03:27:35;;;;;;;43.33;22.45;;;;;;;7.01;100.00;98501.84;5052491;28;20017;-60
2023/03/10 03:30:01;;;;;;;48.88;23.60;;;;;;;6.99;100.00;98505.25;5051793;28;20108;-60
2023/03/10 03:32:27;;;;;;;49.90;23.15;;;;;;;7.08;100.00;98507.84;5051570;28;20507;-60
2023/03/10 03:34:52;;;;;;;50.80;23.52;;;;;;;7.07;100.00;98504.41;5052149;28;20063;-60
2023/03/10 03:37:17;;;;;;;53.33;24.20;;;;;;;7.05;100.00;98503.56;5051681;28;20104;-59
2023/03/10 03:39:43;;;;;;;45.90;22.23;;;;;;;7.04;100.00;98512.09;5051946;28;20108;-60
2023/03/10 03:42:08;;;;;;;46.15;22.40;;;;;;;7.10;100.00;98506.16;5052189;28;20025;-60
2023/03/10 03:44:33;;;;;;;49.75;22.83;;;;;;;7.14;100.00;98507.91;5052034;28;20366;-60
2023/03/10 03:46:58;;;;;;;45.63;21.77;;;;;;;7.15;100.00;98509.59;5051475;28;20017;-60
2023/03/10 03:49:24;;;;;;;49.00;23.60;;;;;;;7.23;100.00;98497.69;5052210;28;20112;-60
2023/03/10 03:51:49;;;;;;;46.03;21.92;;;;;;;7.23;100.00;98502.81;5051375;28;20021;-60
2023/03/10 03:54:14;;;;;;;46.15;20.10;;;;;;;7.25;100.00;98501.09;5051730;28;20462;-60
2023/03/10 03:56:40;;;;;;;46.60;20.20;;;;;;;7.25;100.00;98503.66;5052015;28;20036;-60
2023/03/10 03:59:05;;;;;;;46.47;19.17;;;;;;;7.29;100.00;98493.44;5050860;28;20021;-59
2023/03/10 04:01:30;;;;;;;40.45;18.05;;;;;;;7.36;100.00;98492.59;5051995;28;20025;-59
2023/03/10 04:03:56;;;;;;;42.28;16.85;;;;;;;7.36;100.00;98487.47;5051783;28;20059;-60
2023/03/10 04:06:21;;;;;;;42.38;16.83;;;;;;;7.33;100.00;98490.88;5050979;28;20045;-59
2023/03/10 04:08:48;;;;;;;36.70;15.85;;;;;;;7.37;100.00;98496.91;5051958;28;20049;-59
2023/03/10 04:11:14;;;;;;;35.53;14.73;;;;;;;7.39;100.00;98482.41;5051775;28;20456;-60
2023/03/10 04:13:40;;;;;;;33.35;14.40;;;;;;;7.43;100.00;98484.13;5051265;28;20493;-59
2023/03/10 04:16:06;;;;;;;40.90;15.27;;;;;;;7.41;100.00;98488.38;5051548;28;20029;-60
2023/03/10 04:18:31;;;;;;;34.80;13.90;;;;;;;7.41;100.00;98485.81;5054485;28;20051;-60
2023/03/10 04:20:56;;;;;;;34.63;13.15;;;;;;;7.41;100.00;98480.69;5054903;28;20017;-60
2023/03/10 04:23:22;;;;;;;34.10;12.48;;;;;;;7.47;100.00;98490.97;5055637;28;20116;-60
2023/03/10 04:25:48;;;;;;;31.55;12.55;;;;;;;7.45;100.00;98487.56;5055347;28;20049;-60
2023/03/10 04:28:13;;;;;;;33.25;12.18;;;;;;;7.42;100.00;98482.41;5054519;28;20025;-60
2023/03/10 04:30:41;;;;;;;31.08;11.35;;;;;;;7.41;100.00;98480.69;5055504;28;20025;-60
2023/03/10 04:33:06;;;;;;;;;;;;;;;7.51;100.00;98482.44;5055015;28;20435;-60
2023/03/10 04:35:31;;;;;;;30.63;11.07;;;;;;;7.48;100.00;98485.00;5054582;28;20360;-60
2023/03/10 04:37:57;;;;;;;25.48;10.48;;;;;;;7.48;100.00;98482.44;5055021;28;20280;-60
2023/03/10 04:40:22;;;;;;;31.85;9.90;;;;;;;7.48;100.00;98481.59;5055040;28;20431;-60
2023/03/10 04:42:47;;;;;;;35.85;9.85;;;;;;;7.49;100.00;98476.44;5054695;28;20028;-60
2023/03/10 04:45:13;;;;;;;31.20;9.88;;;;;;;7.50;100.00;98470.47;5054700;28;20120;-60
2023/03/10 04:47:38;;;;;;;28.95;8.88;;;;;;;7.52;100.00;98467.91;5054670;28;20513;-60
2023/03/10 04:50:04;;;;;;;29.77;8.98;;;;;;;7.44;100.00;98470.47;5053930;28;20025;-60
2023/03/10 04:52:29;;;;;;;34.63;9.50;;;;;;;7.40;100.00;98468.75;5054967;28;20025;-60
2023/03/10 04:54:55;;;;;;;25.13;8.20;;;;;;;7.34;100.00;98468.72;5054467;28;20033;-60
2023/03/10 04:57:20;;;;;;;28.52;8.52;;;;;;;7.35;100.00;98460.19;5054419;28;20384;-60
2023/03/10 04:59:46;;;;;;;30.13;8.18;;;;;;;7.30;100.00;98464.44;5054660;28;20028;-60
2023/03/10 05:02:11;;;;;;;24.98;8.23;;;;;;;7.33;100.00;98467.00;5053526;28;20078;-60
2023/03/10 05:04:38;;;;;;;34.63;8.70;;;;;;;7.28;100.00;98466.09;5054541;28;20116;-60
2023/03/10 05:07:03;;;;;;;29.67;8.30;;;;;;;7.24;100.00;98460.97;5054074;28;20087;-60
2023/03/10 05:09:29;;;;;;;39.92;8.98;;;;;;;7.24;100.00;98463.53;5053883;28;20033;-60
2023/03/10 05:11:54;;;;;;;28.98;9.07;;;;;;;7.28;100.00;98463.56;5054633;28;20029;-60
2023/03/10 05:14:19;;;;;;;36.55;9.27;;;;;;;7.24;100.00;98463.53;5054506;28;20025;-60
2023/03/10 05:16:47;;;;;;;39.63;9.02;;;;;;;7.22;100.00;98470.34;5053744;28;20060;-60
2023/03/10 05:19:12;;;;;;;34.47;9.30;;;;;;;7.21;100.00;98458.38;5053993;28;20083;-60
2023/03/10 05:21:37;;;;;;;32.28;8.75;;;;;;;7.22;100.00;98454.97;5054087;28;20020;-60
2023/03/10 05:24:03;;;;;;;32.20;9.13;;;;;;;7.19;100.00;98464.34;5053481;28;20075;-60
2023/03/10 05:26:29;;;;;;;31.58;8.77;;;;;;;7.16;100.00;98457.50;5054354;28;20021;-60
2023/03/10 05:28:55;;;;;;;33.90;9.05;;;;;;;7.15;100.00;98455.78;5053564;28;20017;-61
2023/03/10 05:31:24;;;;;;;36.45;9.52;;;;;;;7.17;100.00;98458.38;5053626;28;20025;-60
2023/03/10 05:33:50;;;;;;;32.03;9.65;;;;;;;7.20;100.00;98464.34;5054048;28;20074;-60
2023/03/10 05:36:15;;;;;;;30.25;8.93;;;;;;;7.19;100.00;98465.22;5053344;28;20112;-60
2023/03/10 05:38:41;;;;;;;36.22;9.55;;;;;;;7.17;100.00;98466.91;5053695;28;20043;-60
2023/03/10 05:41:08;;;;;;;35.53;8.80;;;;;;;7.17;100.00;98466.06;5053555;28;20492;-60
2023/03/10 05:43:34;;;;;;;37.80;9.25;;;;;;;7.14;100.00;98461.78;5053660;28;20036;-60
2023/03/10 05:45:59;;;;;;;42.40;8.95;;;;;;;7.16;100.00;98467.75;5052977;28;20017;-60
2023/03/10 05:48:25;;;;;;;38.28;9.00;;;;;;;7.18;100.00;98475.44;5053791;28;20083;-60
2023/03/10 05:51:04;;;;;;;37.90;9.45;;;;;;;7.17;100.00;98466.91;5053731;28;20523;-60
2023/03/10 05:53:30;;;;;;;42.03;9.82;;;;;;;7.17;100.00;98478.88;5053296;28;20024;-60
2023/03/10 05:55:56;;;;;;;38.37;9.43;;;;;;;7.17;100.00;98476.31;5053369;28;20449;-60
2023/03/10 05:58:23;;;;;;;38.33;9.20;;;;;;;7.16;100.00;98469.47;5053347;28;20524;-60
2023/03/10 06:00:48;;;;;;;37.30;9.45;;;;;;;7.22;100.00;98457.53;5053485;28;20035;-60
2023/03/10 06:03:13;;;;;;;43.80;10.85;;;;;;;7.23;100.00;98461.81;5053302;28;20045;-60
2023/03/10 06:05:39;;;;;;;41.20;9.95;;;;;;;7.22;100.00;98465.22;5052732;28;20045;-60
2023/03/10 06:08:04;;;;;;;41.30;10.07;;;;;;;7.23;100.00;98472.06;5053586;28;20060;-60
2023/03/10 06:10:30;;;;;;;42.58;10.65;;;;;;;7.24;100.00;98473.78;5053551;28;20059;-60
2023/03/10 06:12:55;;;;;;;41.33;10.20;;;;;;;7.24;100.00;98473.78;5052475;28;20024;-60
2023/03/10 06:15:20;;;;;;;45.50;10.73;;;;;;;7.26;100.00;98473.78;5053268;28;20061;-60
2023/03/10 06:17:46;;;;;;;38.80;10.13;;;;;;;7.25;100.00;98475.47;5053392;28;20056;-60
2023/03/10 06:20:12;;;;;;;42.25;10.60;;;;;;;7.22;100.00;98483.16;5052395;28;20059;-60
2023/03/10 06:22:37;;;;;;;37.00;10.65;;;;;;;7.25;100.00;98479.75;5053494;28;20045;-60
2023/03/10 06:25:03;;;;;;;45.20;11.05;;;;;;;7.24;100.00;98484.03;5052782;28;20413;-60
2023/03/10 06:27:30;;;;;;;42.25;11.75;;;;;;;7.23;100.00;98482.31;5052724;28;20439;-60
2023/03/10 06:29:55;;;;;;;49.50;12.30;;;;;;;7.24;100.00;98481.47;5052819;28;20431;-60
2023/03/10 06:32:21;;;;;;;44.47;10.63;;;;;;;7.21;100.00;98478.88;5053004;28;20468;-60
2023/03/10 06:34:46;;;;;;;44.40;12.00;;;;;;;7.20;100.00;98482.28;5052733;28;20108;-60
2023/03/10 06:37:12;;;;;;;50.15;12.15;;;;;;;7.24;100.00;98484.03;5052766;28;20036;-60
2023/03/10 06:39:38;;;;;;;51.90;12.05;;;;;;;7.28;100.00;98492.56;5052284;28;20116;-60
2023/03/10 06:42:04;;;;;;;40.38;11.75;;;;;;;7.27;100.00;98496.00;5052097;28;20021;-60
2023/03/10 06:44:29;;;;;;;47.85;12.15;;;;;;;7.29;100.00;98490.88;5052897;28;20021;-60
2023/03/10 06:46:55;;;;;;;43.55;11.60;;;;;;;7.33;100.00;98495.16;5052490;28;20071;-60
2023/03/10 06:49:20;;;;;;;35.35;11.88;;;;;;;7.34;100.00;98500.28;5052508;28;20543;-59
2023/03/10 06:51:45;;;;;;;38.28;11.43;;;;;;;7.34;100.00;98497.72;5052745;28;20075;-60
2023/03/10 06:54:11;;;;;;;37.05;10.65;;;;;;;7.32;100.00;98490.88;5052406;28;20036;-60
2023/03/10 06:56:36;;;;;;;38.42;11.18;;;;;;;7.31;100.00;98490.03;5052230;28;20468;-60
2023/03/10 06:59:01;;;;;;;37.28;10.13;;;;;;;7.33;100.00;98490.06;5052396;28;20029;-60
2023/03/10 07:01:28;;;;;;;31.55;9.13;;;;;;;7.35;100.00;98496.03;5052712;28;20021;-60
2023/03/10 07:03:54;;;;;;;35.08;9.73;;;;;;;7.34;100.00;98500.28;5051947;28;20376;-60
2023/03/10 07:06:20;;;;;;;24.52;9.18;;;;;;;7.35;100.00;98485.81;5052549;28;20041;-60
2023/03/10 07:08:46;;;;;;;30.00;9.60;;;;;;;7.34;100.00;98491.75;5052017;28;20112;-60
2023/03/10 07:11:11;;;;;;;31.80;10.18;;;;;;;7.34;100.00;98494.34;5052260;28;20039;-60
2023/03/10 07:13:37;;;;;;;32.63;10.18;;;;;;;7.31;100.00;98501.97;5052526;28;20070;-60
2023/03/10 07:16:03;;;;;;;23.08;9.20;;;;;;;7.33;100.00;98501.13;5051571;28;20032;-60
2023/03/10 07:18:28;;;;;;;35.42;10.85;;;;;;;7.35;100.00;98501.16;5052635;28;20062;-60
2023/03/10 07:20:54;;;;;;;37.15;11.35;;;;;;;7.35;100.00;98507.16;5052128;28;20389;-59
2023/03/10 07:23:20;;;;;;;32.40;11.80;;;;;;;7.39;100.00;98500.34;5052119;28;20029;-60
2023/03/10 07:25:50;;;;;;;35.28;12.80;;;;;;;7.40;100.00;98515.72;5052351;28;20013;-60
2023/03/10 07:28:16;;;;;;;31.77;10.27;;;;;;;7.45;100.00;98508.06;5051954;28;20111;-60
2023/03/10 07:30:41;;;;;;;29.95;10.75;;;;;;;7.45;100.00;98512.31;5052033;28;20484;-60
2023/03/10 07:33:06;;;;;;;35.47;11.60;;;;;;;7.51;100.00;98508.06;5052061;28;20036;-60
2023/03/10 07:35:32;;;;;;;35.60;13.20;;;;;;;7.56;100.00;98520.91;5052109;28;20096;-59
2023/03/10 07:37:57;;;;;;;38.97;12.65;;;;;;;7.62;100.00;98517.50;5051429;28;20131;-60
2023/03/10 07:40:23;;;;;;;41.58;13.38;;;;;;;7.72;100.00;98520.13;5052340;28;20427;-59
2023/03/10 07:42:51;;;;;;;64.30;15.10;;;;;;;7.79;100.00;98525.28;5051975;28;20021;-60
2023/03/10 07:45:17;;;;;;;104.22;18.58;;;;;;;8.03;100.00;98532.16;5051359;28;20476;-60
2023/03/10 07:47:42;;;;;;;157.02;22.30;;;;;;;8.24;100.00;98527.06;5052472;28;20025;-60
2023/03/10 07:50:08;;;;;;;847.90;72.10;;;;;;;8.17;100.00;98530.50;5051661;28;20412;-59
2023/03/10 07:52:34;;;;;;;76.72;17.30;;;;;;;8.44;100.00;98523.66;5055272;28;20033;-59
2023/03/10 07:54:59;;;;;;;40.92;16.65;;;;;;;8.77;100.00;98532.28;5055839;28;20346;-59
2023/03/10 07:57:24;;;;;;;36.80;14.65;;;;;;;8.52;100.00;98527.16;5055598;28;20029;-59
2023/03/10 07:59:49;;;;;;;41.72;12.98;;;;;;;8.39;100.00;98522.81;5055784;28;20469;-59
2023/03/10 08:02:15;;;;;;;28.65;10.48;;;;;;;8.30;100.00;98526.25;5055781;28;20053;-59
2023/03/10 08:04:40;;;;;;;35.55;11.95;;;;;;;8.26;100.00;98536.50;5055914;28;20028;-60
2023/03/10 08:07:06;;;;;;;35.72;10.43;;;;;;;8.28;100.00;98532.22;5054597;28;20072;-60
2023/03/10 08:09:32;;;;;;;33.15;8.48;;;;;;;8.26;100.00;98524.50;5055672;28;20021;-59
2023/03/10 08:11:58;;;;;;;30.70;7.80;;;;;;;8.31;100.00;98527.94;5054934;28;20036;-60
2023/03/10 08:14:24;;;;;;;25.17;7.45;;;;;;;8.48;100.00;98519.44;5055031;28;20524;-59
2023/03/10 08:16:53;;;;;;;27.55;6.60;;;;;;;8.54;100.00;98530.56;5055678;28;20028;-59
2023/03/10 08:19:18;;;;;;;24.20;6.20;;;;;;;8.77;100.00;98522.00;5054938;28;20029;-59
2023/03/10 08:21:44;;;;;;;22.65;5.82;;;;;;;8.93;100.00;98532.28;5055498;28;20025;-60
2023/03/10 08:24:09;;;;;;;24.20;4.88;;;;;;;9.04;100.00;98530.56;5054885;28;20393;-60
2023/03/10 08:26:35;;;;;;;18.08;4.25;;;;;;;9.06;100.00;98529.69;5054747;28;20017;-59
2023/03/10 08:29:01;;;;;;;25.10;4.47;;;;;;;9.14;100.00;98527.09;5055201;28;20032;-59
2023/03/10 08:31:26;;;;;;;24.02;5.85;;;;;;;9.12;100.00;98533.94;5054943;28;20480;-60
2023/03/10 08:33:55;;;;;;;18.48;4.57;;;;;;;9.15;100.00;98536.50;5054681;28;20032;-59
2023/03/10 08:36:23;;;;;;;21.55;4.07;;;;;;;9.14;100.00;98537.38;5054945;28;20504;-59
2023/03/10 08:38:49;;;;;;;;;;;;;;;9.27;100.00;98534.78;5055327;28;20091;-59
2023/03/10 08:41:19;;;;;;;20.85;4.78;;;;;;;9.05;100.00;98537.38;5053934;28;19917;-60
2023/03/10 08:43:44;;;;;;;20.83;4.68;;;;;;;8.97;100.00;98539.97;5055127;28;20021;-59
2023/03/10 08:46:10;;;;;;;18.15;4.68;;;;;;;8.98;100.00;98540.84;5054740;28;20046;-59
2023/03/10 08:48:36;;;;;;;19.58;4.63;;;;;;;8.97;100.00;98531.41;5054511;28;20058;-59
2023/03/10 08:51:02;;;;;;;17.60;4.07;;;;;;;9.06;100.00;98533.94;5054582;28;20381;-59
2023/03/10 08:53:28;;;;;;;19.63;4.57;;;;;;;9.15;100.00;98527.94;5054586;28;20021;-60
2023/03/10 08:55:53;;;;;;;24.75;6.03;;;;;;;9.26;100.00;98535.63;5053844;28;20039;-59
2023/03/10 08:58:18;;;;;;;20.70;5.07;;;;;;;9.35;100.00;98540.75;5054849;28;20052;-59
2023/03/10 09:00:44;;;;;;;20.13;5.18;;;;;;;9.50;100.00;98539.84;5054539;28;20419;-59
2023/03/10 09:03:10;;;;;;;16.25;4.63;;;;;;;9.71;100.00;98538.94;5053459;28;20416;-59
2023/03/10 09:05:36;;;;;;;25.65;5.82;;;;;;;9.70;100.00;98532.06;5054521;28;20037;-59
2023/03/10 09:08:02;;;;;;;18.80;4.47;;;;;;;9.70;100.00;98538.06;5054171;28;20029;-59
2023/03/10 09:10:28;;;;;;;22.52;4.82;;;;;;;9.65;100.00;98529.50;5053878;28;20067;-59
2023/03/10 09:12:54;;;;;;;17.73;4.20;;;;;;;9.62;100.00;98528.66;5054509;28;20061;-59
2023/03/10 09:15:20;;;;;;;20.10;4.07;;;;;;;9.54;100.00;98524.41;5053818;28;20035;-60
2023/03/10 09:17:45;;;;;;;16.60;4.25;;;;;;;9.44;100.00;98524.44;5054483;28;20116;-59
2023/03/10 09:20:11;;;;;;;20.15;4.32;;;;;;;9.40;100.00;98531.31;5054123;28;20424;-59
2023/03/10 09:22:36;;;;;;;19.60;4.55;;;;;;;9.36;100.00;98532.16;5053792;28;20021;-59
2023/03/10 09:25:02;;;;;;;19.70;4.90;;;;;;;9.39;100.00;98525.31;5053924;28;20047;-59
2023/03/10 09:27:27;;;;;;;19.95;4.50;;;;;;;9.52;100.00;98522.72;5054130;28;20025;-59
2023/03/10 09:29:52;;;;;;;20.98;4.13;;;;;;;9.55;100.00;98530.41;5053744;28;20033;-59
2023/03/10 09:32:17;;;;;;;19.48;4.68;;;;;;;9.54;100.00;98532.13;5053957;28;20579;-59
2023/03/10 09:34:44;;;;;;;19.05;4.47;;;;;;;9.56;100.00;98526.97;5054179;28;20032;-59
2023/03/10 09:37:09;;;;;;;18.95;4.28;;;;;;;9.51;100.00;98526.13;5053191;28;20056;-60
2023/03/10 09:39:34;;;;;;;18.65;3.97;;;;;;;9.47;100.00;98515.00;5053869;28;20017;-60
2023/03/10 09:42:06;;;;;;;17.60;4.38;;;;;;;9.47;100.00;98519.31;5053482;28;20402;-59
2023/03/10 09:44:54;;;;;;;17.15;3.88;;;;;;;9.45;100.00;98519.31;5053451;28;20061;-60
2023/03/10 09:47:57;;;;;;;20.58;4.35;;;;;;;9.47;100.00;98530.44;5053625;28;20433;-59
2023/03/10 09:50:28;;;;;;;17.88;3.92;;;;;;;9.41;100.00;98535.59;5053349;28;20491;-59
2023/03/10 09:53:06;;;;;;;16.90;3.72;;;;;;;9.40;100.00;98533.91;5053612;28;20116;-59
2023/03/10 09:55:39;;;;;;;10.93;2.92;;;;;;;9.35;100.00;98536.47;5053414;28;20113;-59
2023/03/10 09:58:09;;;;;;;16.17;3.80;;;;;;;9.34;100.00;98539.06;5052809;28;20033;-60
2023/03/10 10:00:39;;;;;;;16.08;3.70;;;;;;;9.33;100.00;98543.31;5053671;28;20439;-60
2023/03/10 10:03:10;;;;;;;12.43;2.58;;;;;;;9.31;100.00;98555.34;5053033;28;20024;-59
2023/03/10 10:05:37;;;;;;;13.15;2.60;;;;;;;9.29;100.00;98544.19;5052582;28;20052;-60
2023/03/10 10:08:13;;;;;;;14.00;2.85;;;;;;;9.30;100.00;98556.19;5053012;28;20094;-59
2023/03/10 10:10:41;;;;;;;11.90;3.00;;;;;;;9.23;100.00;98557.03;5053082;28;20040;-60
2023/03/10 10:13:11;;;;;;;;;;;;;;;9.39;100.00;98557.88;5052900;28;20029;-59
2023/03/10 10:15:40;;;;;;;18.45;3.83;;;;;;;9.30;100.00;98552.78;5052247;28;20303;-59
2023/03/10 10:18:19;;;;;;;13.57;3.72;;;;;;;9.27;100.00;98558.78;5052510;28;20480;-59
2023/03/10 10:21:17;;;;;;;17.35;4.28;;;;;;;9.28;100.00;98559.63;5052596;28;20032;-59
2023/03/10 10:23:51;;;;;;;17.48;4.55;;;;;;;9.26;100.00;98566.47;5052471;28;20053;-60
2023/03/10 10:26:25;;;;;;;19.45;6.25;;;;;;;9.18;100.00;98559.66;5052315;28;20035;-59
2023/03/10 10:28:57;;;;;;;25.60;7.70;;;;;;;9.09;100.00;98559.66;5053003;28;20082;-59
2023/03/10 10:31:26;;;;;;;19.65;5.30;;;;;;;8.99;100.00;98565.66;5052730;28;20091;-60
2023/03/10 10:33:57;;;;;;;23.00;6.10;;;;;;;8.89;100.00;98564.81;5052267;28;20055;-59
2023/03/10 10:36:33;;;;;;;17.00;5.18;;;;;;;8.83;100.00;98565.69;5052906;28;20020;-60
2023/03/10 10:38:59;;;;;;;21.10;8.10;;;;;;;8.68;100.00;98569.09;5052349;28;20029;-60
2023/03/10 10:41:30;;;;;;;21.42;7.13;;;;;;;8.61;100.00;98562.25;5052303;28;20039;-60
2023/03/10 10:44:08;;;;;;;20.73;6.85;;;;;;;8.59;100.00;98563.09;5052582;28;20024;-60
2023/03/10 10:46:33;;;;;;;32.78;15.00;;;;;;;8.56;100.00;98558.81;5052929;28;20108;-60
2023/03/10 10:49:02;;;;;;;28.88;10.80;;;;;;;8.52;100.00;98555.41;5052146;28;20024;-61
2023/03/10 10:51:29;;;;;;;24.35;8.25;;;;;;;8.47;100.00;98554.53;5052792;28;20017;-60
2023/03/10 10:54:01;;;;;;;21.08;6.55;;;;;;;8.40;100.00;98552.78;5051911;28;20027;-60
2023/03/10 10:56:27;;;;;;;19.25;4.65;;;;;;;8.40;100.00;98547.63;5052782;28;20035;-61
2023/03/10 10:59:05;;;;;;;15.23;5.22;;;;;;;8.42;100.00;98545.94;5052489;28;20100;-60
2023/03/10 11:01:58;;;;;;;20.75;5.57;;;;;;;8.56;100.00;98546.84;5052422;28;20029;-61
2023/03/10 11:04:26;;;;;;;20.95;5.35;;;;;;;8.57;100.00;98539.97;5052800;28;20017;-60
2023/03/10 11:07:06;;;;;;;24.42;6.50;;;;;;;8.64;100.00;98535.72;5052173;28;20041;-61
2023/03/10 11:09:31;;;;;;;19.90;7.95;;;;;;;8.64;100.00;98540.84;5052340;28;20064;-60
2023/03/10 11:12:26;;;;;;;23.95;5.88;;;;;;;8.62;100.00;98545.13;5052542;28;20056;-61
2023/03/10 11:15:06;;;;;;;19.25;5.70;;;;;;;8.57;100.00;98543.41;5049385;28;20044;-60
2023/03/10 11:17:41;;;;;;;19.83;5.75;;;;;;;8.53;100.00;98539.13;5052533;28;20120;-60
2023/03/10 11:20:28;;;;;;;22.33;6.45;;;;;;;8.55;100.00;98532.28;5052232;28;20021;-60
2023/03/10 11:23:02;;;;;;;19.52;6.88;;;;;;;8.57;100.00;98530.56;5052027;28;20057;-60